Cold Bay Airport (CDB/PACD)





Airport Information
Location: Cold Bay, Alaska
Coordinates: 55.2059 / -162.726
Field Elevation: 98ft
Longest Runway: 10,414ft
ILS Approaches: YES
Landing Fees: $347 per flight
Jet A Price: $0.23/lbs
Charts:

Current Weather
METAR: PACD 191253Z 22003KT 10SM OVC031 09/08 A2993 RMK AO2 SLP136 T00940078
TAF: PACD 191137Z 1912/2012 VRB06KT P6SM OVC035 FM200000 02011KT P6SM BKN030 BKN050 FM200900 30006KT P6SM OVC015

Recent Arrivals
Date Flight Type Depart
03/07/2021 GRZ5375 SF34 Sand Point Airport (PASD)
03/06/2021 GRZ5373 SF34 Unalaska Airport (PADU)
02/21/2021 GRZ5370 SF34 King Salmon Airport (PAKN)
11/21/2020 GRZ5384 SF34 Ted Stevens Anchorage International Airport (PANC)
Recent Departures
Date Flight Type Arrive
03/13/2021 GRZ5385 SF34 Ted Stevens Anchorage International Airport (PANC)
03/07/2021 GRZ5374 SF34 Sand Point Airport (PASD)
03/06/2021 GRZ5372 SF34 Unalaska Airport (PADU)
11/22/2020 GRZ5371 SF34 King Salmon Airport (PAKN)